Portada
METAR-TAF:

METAR-TAF

Aeroports :

Hohhot, Xina

latitud: 40-49N, longitud: 111-41E, altitud: 1065 m

Observació

L'informe es va fer fa 49 minuts, a les 21:00 UTC
Vent 4 kt del Nord/Nord-Est
Temperatura 10°C
Humitat 66%
Pressió 1008 hPa
Visibilitat 10 km o més
sense núvols per sota de 1500 mi sense presència de cumulonimbus.

METAR: ZBHH 182100Z 03002MPS CAVOK 10/04 Q1008 NOSIG

Hora: 05:49 (21:49 UTC)

Pronòstic

L'informe es va fer fa 6 hores i 49 minuts, a les 15:00 UTC
Pronòstic vàlid del 18 a les 18 UTC al 19 a les 18 UTC
Vent 8 kt del Est/Nord-Est
Visibilitat 10 km o més
sense núvols per sota de 1500 mi sense presència de cumulonimbus.
Evolucionant progressivament
l' 19 a les 03 UTC al 19 a les 04 UTC
Vent 16 kt del Nord/Nord-Oest amb ràfegues de 25 kt
Evolucionant progressivament
l' 19 a les 11 UTC al 19 a les 12 UTC
Vent 8 kt del Est/Nord-Est

TAF: ZBHH 181500Z 1818/1918 06004MPS CAVOK TX30/1907Z TN13/1822Z BECMG 1903/1904 33008G13MPS BECMG 1911/1912 06004MPS

Observacions i pronòstics meteorològics de més de 4000 aeroports (METAR i TAF).

Les estacions disponibles són els punts grocs i vermells al mapa.

Posi el ratolí al punt desitjat per veure el nom de l'estació.

Feu clic per veure les observacions i els pronòstics meteorològics.

Per canviar el mapa: feu clic els botons verds amb una creu de color negre per apropar; al botó verd amb un guió per allunyar la imatge; o en les fletxes verdes per a mapes adjacents.


METAR-TAF: